Aviation Digital Data Service (ADDS)

Output produced by TAFs form (1602 UTC 26 November 2014)
found at http://aviationweather.gov/adds/tafs/
 
KFMN 261131Z 2612/2712 VRB06KT P6SM SCT250 
     FM261800 27011KT P6SM SCT250 
     TEMPO 2619/2623 27012G22KT 
     FM270100 30005KT P6SM SCT250 
     FM270900 09006KT P6SM SCT250